sensor_id;sensor_type;location;lat;lon;timestamp;temperature;humidity
14359;DHT22;7263;49.418;11.064;2022-09-03T00:00:46;13.60;99.90
14359;DHT22;7263;49.418;11.064;2022-09-03T00:03:21;13.60;99.90
14359;DHT22;7263;49.418;11.064;2022-09-03T00:08:24;13.40;99.90
14359;DHT22;7263;49.418;11.064;2022-09-03T00:10:56;13.40;99.90
14359;DHT22;7263;49.418;11.064;2022-09-03T00:13:29;13.30;99.90
14359;DHT22;7263;49.418;11.064;2022-09-03T00:18:29;13.20;99.90
14359;DHT22;7263;49.418;11.064;2022-09-03T00:21:00;13.20;99.90
14359;DHT22;7263;49.418;11.064;2022-09-03T00:23:34;13.20;99.90
14359;DHT22;7263;49.418;11.064;2022-09-03T00:26:08;13.20;99.90
14359;DHT22;7263;49.418;11.064;2022-09-03T00:28:40;13.00;99.90
14359;DHT22;7263;49.418;11.064;2022-09-03T00:31:12;12.90;99.90
14359;DHT22;7263;49.418;11.064;2022-09-03T00:33:43;12.80;99.90
14359;DHT22;7263;49.418;11.064;2022-09-03T00:36:17;12.80;99.90
14359;DHT22;7263;49.418;11.064;2022-09-03T00:38:45;12.70;99.90
14359;DHT22;7263;49.418;11.064;2022-09-03T00:41:21;12.60;99.90
14359;DHT22;7263;49.418;11.064;2022-09-03T00:44:07;12.50;99.90
14359;DHT22;7263;49.418;11.064;2022-09-03T00:46:41;12.40;99.90
14359;DHT22;7263;49.418;11.064;2022-09-03T00:49:26;12.40;99.90
14359;DHT22;7263;49.418;11.064;2022-09-03T00:52:03;12.30;99.90
14359;DHT22;7263;49.418;11.064;2022-09-03T00:54:42;12.40;99.90
14359;DHT22;7263;49.418;11.064;2022-09-03T00:57:29;12.40;99.90
14359;DHT22;7263;49.418;11.064;2022-09-03T01:00:05;12.40;99.90
14359;DHT22;7263;49.418;11.064;2022-09-03T01:02:42;12.30;99.90
14359;DHT22;7263;49.418;11.064;2022-09-03T01:05:22;12.30;99.90
14359;DHT22;7263;49.418;11.064;2022-09-03T01:08:06;12.40;99.90
14359;DHT22;7263;49.418;11.064;2022-09-03T01:10:43;12.30;99.90
14359;DHT22;7263;49.418;11.064;2022-09-03T01:13:14;12.20;99.90
14359;DHT22;7263;49.418;11.064;2022-09-03T01:15:52;12.10;99.90
14359;DHT22;7263;49.418;11.064;2022-09-03T01:18:27;12.10;99.90
14359;DHT22;7263;49.418;11.064;2022-09-03T01:21:12;12.00;99.90
14359;DHT22;7263;49.418;11.064;2022-09-03T01:23:59;12.00;99.90
14359;DHT22;7263;49.418;11.064;2022-09-03T01:26:51;11.90;99.90
14359;DHT22;7263;49.418;11.064;2022-09-03T01:29:25;11.90;99.90
14359;DHT22;7263;49.418;11.064;2022-09-03T01:32:00;11.90;99.90
14359;DHT22;7263;49.418;11.064;2022-09-03T01:34:39;11.90;99.90
14359;DHT22;7263;49.418;11.064;2022-09-03T01:37:15;11.90;99.90
14359;DHT22;7263;49.418;11.064;2022-09-03T01:39:53;11.90;99.90
14359;DHT22;7263;49.418;11.064;2022-09-03T01:42:31;11.80;99.90
14359;DHT22;7263;49.418;11.064;2022-09-03T01:45:22;11.70;99.90
14359;DHT22;7263;49.418;11.064;2022-09-03T01:48:05;11.60;99.90
14359;DHT22;7263;49.418;11.064;2022-09-03T01:50:45;11.60;99.90
14359;DHT22;7263;49.418;11.064;2022-09-03T01:53:25;11.60;99.90
14359;DHT22;7263;49.418;11.064;2022-09-03T01:56:05;11.50;99.90
14359;DHT22;7263;49.418;11.064;2022-09-03T01:58:39;11.50;99.90
14359;DHT22;7263;49.418;11.064;2022-09-03T02:01:15;11.50;99.90
14359;DHT22;7263;49.418;11.064;2022-09-03T02:03:44;11.40;99.90
14359;DHT22;7263;49.418;11.064;2022-09-03T02:08:40;11.20;99.90
14359;DHT22;7263;49.418;11.064;2022-09-03T02:11:08;11.20;99.90
14359;DHT22;7263;49.418;11.064;2022-09-03T02:13:37;11.10;99.90
14359;DHT22;7263;49.418;11.064;2022-09-03T02:16:11;11.10;99.90
14359;DHT22;7263;49.418;11.064;2022-09-03T02:18:41;11.00;99.90
14359;DHT22;7263;49.418;11.064;2022-09-03T02:21:12;11.00;99.90
14359;DHT22;7263;49.418;11.064;2022-09-03T02:28:36;10.90;99.90
14359;DHT22;7263;49.418;11.064;2022-09-03T02:31:03;10.90;99.90
14359;DHT22;7263;49.418;11.064;2022-09-03T02:33:35;10.80;99.90
14359;DHT22;7263;49.418;11.064;2022-09-03T02:36:06;10.80;99.90
14359;DHT22;7263;49.418;11.064;2022-09-03T02:38:33;10.70;99.90
14359;DHT22;7263;49.418;11.064;2022-09-03T02:41:00;11.00;99.90
14359;DHT22;7263;49.418;11.064;2022-09-03T02:43:33;10.70;99.90
14359;DHT22;7263;49.418;11.064;2022-09-03T02:46:04;10.70;99.90
14359;DHT22;7263;49.418;11.064;2022-09-03T02:48:35;10.60;99.90
14359;DHT22;7263;49.418;11.064;2022-09-03T02:56:00;10.50;99.90
14359;DHT22;7263;49.418;11.064;2022-09-03T02:58:28;10.50;99.90
14359;DHT22;7263;49.418;11.064;2022-09-03T03:00:56;10.40;99.90
14359;DHT22;7263;49.418;11.064;2022-09-03T03:05:53;10.40;99.90
14359;DHT22;7263;49.418;11.064;2022-09-03T03:08:23;10.40;99.90
14359;DHT22;7263;49.418;11.064;2022-09-03T03:10:51;10.40;99.90
14359;DHT22;7263;49.418;11.064;2022-09-03T03:18:14;10.40;99.90
14359;DHT22;7263;49.418;11.064;2022-09-03T03:20:43;10.50;99.90
14359;DHT22;7263;49.418;11.064;2022-09-03T03:23:11;10.50;99.90
14359;DHT22;7263;49.418;11.064;2022-09-03T03:25:39;10.60;99.90
14359;DHT22;7263;49.418;11.064;2022-09-03T03:30:35;10.50;99.90
14359;DHT22;7263;49.418;11.064;2022-09-03T03:37:57;10.60;99.90
14359;DHT22;7263;49.418;11.064;2022-09-03T03:40:25;10.60;99.90
14359;DHT22;7263;49.418;11.064;2022-09-03T03:45:20;10.50;99.90
14359;DHT22;7263;49.418;11.064;2022-09-03T03:50:14;10.50;99.90
14359;DHT22;7263;49.418;11.064;2022-09-03T03:55:09;10.40;99.90
14359;DHT22;7263;49.418;11.064;2022-09-03T03:57:37;10.50;99.90
14359;DHT22;7263;49.418;11.064;2022-09-03T04:00:04;10.50;99.90
14359;DHT22;7263;49.418;11.064;2022-09-03T04:02:32;10.50;99.90
14359;DHT22;7263;49.418;11.064;2022-09-03T04:12:21;10.70;99.90
14359;DHT22;7263;49.418;11.064;2022-09-03T04:14:49;10.80;99.90
14359;DHT22;7263;49.418;11.064;2022-09-03T04:27:05;11.00;99.90
14359;DHT22;7263;49.418;11.064;2022-09-03T04:32:01;11.10;99.90
14359;DHT22;7263;49.418;11.064;2022-09-03T04:34:45;11.10;99.90
14359;DHT22;7263;49.418;11.064;2022-09-03T04:42:08;11.20;99.90
14359;DHT22;7263;49.418;11.064;2022-09-03T04:44:34;11.30;99.90
14359;DHT22;7263;49.418;11.064;2022-09-03T04:47:04;11.30;99.90
14359;DHT22;7263;49.418;11.064;2022-09-03T04:54:26;11.50;99.90
14359;DHT22;7263;49.418;11.064;2022-09-03T04:59:20;11.50;99.90
14359;DHT22;7263;49.418;11.064;2022-09-03T05:04:15;11.60;99.90
14359;DHT22;7263;49.418;11.064;2022-09-03T05:09:09;11.80;99.90
14359;DHT22;7263;49.418;11.064;2022-09-03T05:14:03;12.10;99.90
14359;DHT22;7263;49.418;11.064;2022-09-03T05:16:31;12.20;99.90
14359;DHT22;7263;49.418;11.064;2022-09-03T05:21:29;12.20;99.90
14359;DHT22;7263;49.418;11.064;2022-09-03T05:23:56;12.30;99.90
14359;DHT22;7263;49.418;11.064;2022-09-03T05:26:25;12.30;99.90
14359;DHT22;7263;49.418;11.064;2022-09-03T05:28:53;12.30;99.90
14359;DHT22;7263;49.418;11.064;2022-09-03T05:31:22;12.30;99.90
14359;DHT22;7263;49.418;11.064;2022-09-03T05:33:52;12.40;99.90
14359;DHT22;7263;49.418;11.064;2022-09-03T05:36:21;12.60;99.90
14359;DHT22;7263;49.418;11.064;2022-09-03T05:38:50;12.80;99.90
14359;DHT22;7263;49.418;11.064;2022-09-03T05:41:19;12.80;99.90
14359;DHT22;7263;49.418;11.064;2022-09-03T05:43:47;12.90;99.90
14359;DHT22;7263;49.418;11.064;2022-09-03T05:46:16;12.80;99.90
14359;DHT22;7263;49.418;11.064;2022-09-03T05:48:43;12.80;99.90
14359;DHT22;7263;49.418;11.064;2022-09-03T05:51:11;12.80;99.90
14359;DHT22;7263;49.418;11.064;2022-09-03T05:53:39;12.80;99.90
14359;DHT22;7263;49.418;11.064;2022-09-03T05:56:08;12.90;99.90
14359;DHT22;7263;49.418;11.064;2022-09-03T05:58:38;13.20;99.90
14359;DHT22;7263;49.418;11.064;2022-09-03T06:01:12;13.50;99.90
14359;DHT22;7263;49.418;11.064;2022-09-03T06:06:08;14.20;99.90
14359;DHT22;7263;49.418;11.064;2022-09-03T06:08:36;14.60;99.90
14359;DHT22;7263;49.418;11.064;2022-09-03T06:11:04;14.90;99.90
14359;DHT22;7263;49.418;11.064;2022-09-03T06:13:33;15.10;99.90
14359;DHT22;7263;49.418;11.064;2022-09-03T06:16:02;15.20;99.90
14359;DHT22;7263;49.418;11.064;2022-09-03T06:18:30;15.30;99.90
14359;DHT22;7263;49.418;11.064;2022-09-03T06:20:58;15.50;99.90
14359;DHT22;7263;49.418;11.064;2022-09-03T06:23:25;15.90;99.90
14359;DHT22;7263;49.418;11.064;2022-09-03T06:26:00;16.20;99.90
14359;DHT22;7263;49.418;11.064;2022-09-03T06:28:27;16.50;99.90
14359;DHT22;7263;49.418;11.064;2022-09-03T06:30:58;16.60;99.90
14359;DHT22;7263;49.418;11.064;2022-09-03T06:33:26;16.60;99.90
14359;DHT22;7263;49.418;11.064;2022-09-03T06:40:52;16.70;99.90
14359;DHT22;7263;49.418;11.064;2022-09-03T06:43:19;17.10;99.90
14359;DHT22;7263;49.418;11.064;2022-09-03T06:45:53;17.40;99.90
14359;DHT22;7263;49.418;11.064;2022-09-03T06:48:21;17.70;99.90
14359;DHT22;7263;49.418;11.064;2022-09-03T06:50:56;18.00;99.90
14359;DHT22;7263;49.418;11.064;2022-09-03T06:55:55;18.40;99.90
14359;DHT22;7263;49.418;11.064;2022-09-03T06:58:22;18.60;99.90
14359;DHT22;7263;49.418;11.064;2022-09-03T07:03:18;19.10;99.90
14359;DHT22;7263;49.418;11.064;2022-09-03T07:05:46;19.20;99.90
14359;DHT22;7263;49.418;11.064;2022-09-03T07:08:13;19.30;99.90
14359;DHT22;7263;49.418;11.064;2022-09-03T07:10:45;19.10;99.90
14359;DHT22;7263;49.418;11.064;2022-09-03T07:13:12;19.00;99.90
14359;DHT22;7263;49.418;11.064;2022-09-03T07:18:06;19.10;99.90
14359;DHT22;7263;49.418;11.064;2022-09-03T07:23:02;19.80;99.90
14359;DHT22;7263;49.418;11.064;2022-09-03T07:25:29;20.00;99.90
14359;DHT22;7263;49.418;11.064;2022-09-03T07:27:56;19.80;99.90
14359;DHT22;7263;49.418;11.064;2022-09-03T07:35:19;19.00;99.90
14359;DHT22;7263;49.418;11.064;2022-09-03T07:40:18;18.70;99.90
14359;DHT22;7263;49.418;11.064;2022-09-03T07:42:45;18.70;99.90
14359;DHT22;7263;49.418;11.064;2022-09-03T07:45:12;18.60;99.90
14359;DHT22;7263;49.418;11.064;2022-09-03T07:47:45;18.80;99.90
14359;DHT22;7263;49.418;11.064;2022-09-03T07:50:12;18.90;99.90
14359;DHT22;7263;49.418;11.064;2022-09-03T07:55:08;19.20;99.90
14359;DHT22;7263;49.418;11.064;2022-09-03T07:57:37;19.20;99.90
14359;DHT22;7263;49.418;11.064;2022-09-03T08:12:22;20.00;99.90
14359;DHT22;7263;49.418;11.064;2022-09-03T08:14:50;20.30;99.90
14359;DHT22;7263;49.418;11.064;2022-09-03T08:19:44;21.00;99.90
14359;DHT22;7263;49.418;11.064;2022-09-03T08:24:48;20.70;99.90
14359;DHT22;7263;49.418;11.064;2022-09-03T08:27:15;20.40;99.90
14359;DHT22;7263;49.418;11.064;2022-09-03T08:29:42;20.20;99.90
14359;DHT22;7263;49.418;11.064;2022-09-03T08:32:12;20.20;99.90
14359;DHT22;7263;49.418;11.064;2022-09-03T08:34:39;20.10;99.90
14359;DHT22;7263;49.418;11.064;2022-09-03T08:42:18;19.90;99.90
14359;DHT22;7263;49.418;11.064;2022-09-03T08:44:49;19.70;99.90
14359;DHT22;7263;49.418;11.064;2022-09-03T08:47:22;19.60;99.90
14359;DHT22;7263;49.418;11.064;2022-09-03T08:49:54;19.50;99.90
14359;DHT22;7263;49.418;11.064;2022-09-03T08:52:28;19.30;99.90
14359;DHT22;7263;49.418;11.064;2022-09-03T08:55:02;19.20;99.90
14359;DHT22;7263;49.418;11.064;2022-09-03T08:57:31;19.20;99.90
14359;DHT22;7263;49.418;11.064;2022-09-03T09:00:02;19.30;99.90
14359;DHT22;7263;49.418;11.064;2022-09-03T09:02:40;19.30;99.90
14359;DHT22;7263;49.418;11.064;2022-09-03T09:05:14;19.40;99.90
14359;DHT22;7263;49.418;11.064;2022-09-03T09:07:48;19.70;99.90
14359;DHT22;7263;49.418;11.064;2022-09-03T09:10:19;20.00;99.90
14359;DHT22;7263;49.418;11.064;2022-09-03T09:12:57;20.30;99.90
14359;DHT22;7263;49.418;11.064;2022-09-03T09:15:35;20.50;99.90
14359;DHT22;7263;49.418;11.064;2022-09-03T09:18:12;20.70;99.90
14359;DHT22;7263;49.418;11.064;2022-09-03T09:20:46;20.70;99.90
14359;DHT22;7263;49.418;11.064;2022-09-03T09:23:17;20.70;99.90
14359;DHT22;7263;49.418;11.064;2022-09-03T09:25:47;20.50;99.90
14359;DHT22;7263;49.418;11.064;2022-09-03T09:28:18;20.50;99.90
14359;DHT22;7263;49.418;11.064;2022-09-03T09:30:46;20.60;99.90
14359;DHT22;7263;49.418;11.064;2022-09-03T09:33:15;20.90;99.90
14359;DHT22;7263;49.418;11.064;2022-09-03T09:35:43;21.40;99.90
14359;DHT22;7263;49.418;11.064;2022-09-03T09:40:40;22.60;99.90
14359;DHT22;7263;49.418;11.064;2022-09-03T09:43:09;22.90;99.90
14359;DHT22;7263;49.418;11.064;2022-09-03T09:45:38;23.10;99.90
14359;DHT22;7263;49.418;11.064;2022-09-03T09:48:14;23.10;99.90
14359;DHT22;7263;49.418;11.064;2022-09-03T09:50:44;23.40;99.90
14359;DHT22;7263;49.418;11.064;2022-09-03T09:53:11;24.00;99.90
14359;DHT22;7263;49.418;11.064;2022-09-03T09:55:53;24.10;99.10
14359;DHT22;7263;49.418;11.064;2022-09-03T09:58:21;23.80;99.00
14359;DHT22;7263;49.418;11.064;2022-09-03T10:00:56;23.60;99.40
14359;DHT22;7263;49.418;11.064;2022-09-03T10:06:04;23.30;99.30
14359;DHT22;7263;49.418;11.064;2022-09-03T10:08:45;23.10;99.90
14359;DHT22;7263;49.418;11.064;2022-09-03T10:11:12;23.20;99.90
14359;DHT22;7263;49.418;11.064;2022-09-03T10:13:42;23.30;99.90
14359;DHT22;7263;49.418;11.064;2022-09-03T10:16:18;23.40;99.90
14359;DHT22;7263;49.418;11.064;2022-09-03T10:18:50;23.30;99.90
14359;DHT22;7263;49.418;11.064;2022-09-03T10:21:25;23.40;99.90
14359;DHT22;7263;49.418;11.064;2022-09-03T10:23:57;23.50;99.90
14359;DHT22;7263;49.418;11.064;2022-09-03T10:28:57;24.10;99.90
14359;DHT22;7263;49.418;11.064;2022-09-03T10:31:40;24.40;99.70
14359;DHT22;7263;49.418;11.064;2022-09-03T10:34:13;24.40;99.90
14359;DHT22;7263;49.418;11.064;2022-09-03T10:36:48;24.70;99.90
14359;DHT22;7263;49.418;11.064;2022-09-03T10:39:22;25.10;99.50
14359;DHT22;7263;49.418;11.064;2022-09-03T10:42:03;25.30;99.90
14359;DHT22;7263;49.418;11.064;2022-09-03T10:44:46;25.70;99.60
14359;DHT22;7263;49.418;11.064;2022-09-03T10:47:34;25.70;99.10
14359;DHT22;7263;49.418;11.064;2022-09-03T10:50:12;25.30;99.70
14359;DHT22;7263;49.418;11.064;2022-09-03T10:52:58;25.10;99.60
14359;DHT22;7263;49.418;11.064;2022-09-03T10:55:41;24.80;99.90
14359;DHT22;7263;49.418;11.064;2022-09-03T10:58:23;24.90;99.90
14359;DHT22;7263;49.418;11.064;2022-09-03T11:01:00;25.10;99.90
14359;DHT22;7263;49.418;11.064;2022-09-03T11:03:40;25.20;99.90
14359;DHT22;7263;49.418;11.064;2022-09-03T11:06:12;25.60;99.90
14359;DHT22;7263;49.418;11.064;2022-09-03T11:08:47;25.80;99.80
14359;DHT22;7263;49.418;11.064;2022-09-03T11:11:20;26.00;99.50
14359;DHT22;7263;49.418;11.064;2022-09-03T11:13:54;26.10;99.30
14359;DHT22;7263;49.418;11.064;2022-09-03T11:16:25;26.30;99.20
14359;DHT22;7263;49.418;11.064;2022-09-03T11:18:56;26.00;99.50
14359;DHT22;7263;49.418;11.064;2022-09-03T11:21:25;25.70;99.90
14359;DHT22;7263;49.418;11.064;2022-09-03T11:24:03;25.70;99.90
14359;DHT22;7263;49.418;11.064;2022-09-03T11:26:33;25.70;99.90
14359;DHT22;7263;49.418;11.064;2022-09-03T11:29:07;25.50;99.90
14359;DHT22;7263;49.418;11.064;2022-09-03T11:31:50;25.30;99.90
14359;DHT22;7263;49.418;11.064;2022-09-03T11:34:28;25.20;99.90
14359;DHT22;7263;49.418;11.064;2022-09-03T11:37:06;25.20;99.90
14359;DHT22;7263;49.418;11.064;2022-09-03T11:39:37;25.30;99.90
14359;DHT22;7263;49.418;11.064;2022-09-03T11:42:10;25.60;99.90
14359;DHT22;7263;49.418;11.064;2022-09-03T11:44:38;25.90;99.90
14359;DHT22;7263;49.418;11.064;2022-09-03T11:47:14;26.30;99.60
14359;DHT22;7263;49.418;11.064;2022-09-03T11:49:45;26.20;99.70
14359;DHT22;7263;49.418;11.064;2022-09-03T11:52:25;26.30;99.50
14359;DHT22;7263;49.418;11.064;2022-09-03T11:54:53;26.10;99.20
14359;DHT22;7263;49.418;11.064;2022-09-03T11:57:25;25.90;99.40
14359;DHT22;7263;49.418;11.064;2022-09-03T11:59:53;25.70;99.40
14359;DHT22;7263;49.418;11.064;2022-09-03T12:02:25;25.40;99.60
14359;DHT22;7263;49.418;11.064;2022-09-03T12:05:06;24.90;99.90
14359;DHT22;7263;49.418;11.064;2022-09-03T12:07:54;24.40;99.90
14359;DHT22;7263;49.418;11.064;2022-09-03T12:10:35;24.20;99.90
14359;DHT22;7263;49.418;11.064;2022-09-03T12:13:15;24.20;99.90
14359;DHT22;7263;49.418;11.064;2022-09-03T12:16:05;24.20;99.90
14359;DHT22;7263;49.418;11.064;2022-09-03T12:21:06;24.20;99.90
14359;DHT22;7263;49.418;11.064;2022-09-03T12:23:38;24.10;99.90
14359;DHT22;7263;49.418;11.064;2022-09-03T12:26:10;24.20;99.90
14359;DHT22;7263;49.418;11.064;2022-09-03T12:28:41;24.20;99.90
14359;DHT22;7263;49.418;11.064;2022-09-03T12:31:12;24.30;99.90
14359;DHT22;7263;49.418;11.064;2022-09-03T12:33:46;24.10;99.90
14359;DHT22;7263;49.418;11.064;2022-09-03T12:36:14;24.10;99.90
14359;DHT22;7263;49.418;11.064;2022-09-03T12:41:24;24.00;99.90
14359;DHT22;7263;49.418;11.064;2022-09-03T12:43:54;23.80;99.90
14359;DHT22;7263;49.418;11.064;2022-09-03T12:46:25;23.60;99.90
14359;DHT22;7263;49.418;11.064;2022-09-03T12:48:56;23.60;99.90
14359;DHT22;7263;49.418;11.064;2022-09-03T12:51:39;23.60;99.90
14359;DHT22;7263;49.418;11.064;2022-09-03T12:54:08;23.80;99.90
14359;DHT22;7263;49.418;11.064;2022-09-03T12:56:42;23.90;99.90
14359;DHT22;7263;49.418;11.064;2022-09-03T12:59:13;23.80;99.90
14359;DHT22;7263;49.418;11.064;2022-09-03T13:01:46;23.90;99.90
14359;DHT22;7263;49.418;11.064;2022-09-03T13:04:17;23.90;99.90
14359;DHT22;7263;49.418;11.064;2022-09-03T13:06:49;23.80;99.90
14359;DHT22;7263;49.418;11.064;2022-09-03T13:09:22;23.70;99.90
14359;DHT22;7263;49.418;11.064;2022-09-03T13:11:51;23.50;99.90
14359;DHT22;7263;49.418;11.064;2022-09-03T13:20:11;23.50;99.90
14359;DHT22;7263;49.418;11.064;2022-09-03T13:22:48;23.50;99.90
14359;DHT22;7263;49.418;11.064;2022-09-03T13:25:23;23.60;99.90
14359;DHT22;7263;49.418;11.064;2022-09-03T13:27:58;23.60;99.90
14359;DHT22;7263;49.418;11.064;2022-09-03T13:30:31;23.60;99.90
14359;DHT22;7263;49.418;11.064;2022-09-03T13:33:02;23.60;99.90
14359;DHT22;7263;49.418;11.064;2022-09-03T13:35:35;23.50;99.90
14359;DHT22;7263;49.418;11.064;2022-09-03T13:38:08;23.30;99.90
14359;DHT22;7263;49.418;11.064;2022-09-03T13:40:43;23.40;99.90
14359;DHT22;7263;49.418;11.064;2022-09-03T13:43:22;23.30;99.90
14359;DHT22;7263;49.418;11.064;2022-09-03T13:45:55;23.40;99.90
14359;DHT22;7263;49.418;11.064;2022-09-03T13:48:28;23.40;99.90
14359;DHT22;7263;49.418;11.064;2022-09-03T13:51:18;23.40;99.90
14359;DHT22;7263;49.418;11.064;2022-09-03T13:53:56;23.50;99.90
14359;DHT22;7263;49.418;11.064;2022-09-03T13:56:34;23.50;99.90
14359;DHT22;7263;49.418;11.064;2022-09-03T13:59:06;23.40;99.90
14359;DHT22;7263;49.418;11.064;2022-09-03T14:01:59;23.30;99.90
14359;DHT22;7263;49.418;11.064;2022-09-03T14:04:37;23.30;99.90
14359;DHT22;7263;49.418;11.064;2022-09-03T14:07:08;23.20;99.90
14359;DHT22;7263;49.418;11.064;2022-09-03T14:09:47;23.10;99.90
14359;DHT22;7263;49.418;11.064;2022-09-03T14:12:20;23.00;99.90
14359;DHT22;7263;49.418;11.064;2022-09-03T14:14:55;23.00;99.90
14359;DHT22;7263;49.418;11.064;2022-09-03T14:17:36;23.00;99.90
14359;DHT22;7263;49.418;11.064;2022-09-03T14:20:09;23.10;99.90
14359;DHT22;7263;49.418;11.064;2022-09-03T14:22:45;23.00;99.90
14359;DHT22;7263;49.418;11.064;2022-09-03T14:25:15;23.00;99.90
14359;DHT22;7263;49.418;11.064;2022-09-03T14:27:43;23.00;99.90
14359;DHT22;7263;49.418;11.064;2022-09-03T14:30:24;23.00;99.90
14359;DHT22;7263;49.418;11.064;2022-09-03T14:32:57;23.10;99.90
14359;DHT22;7263;49.418;11.064;2022-09-03T14:35:44;23.00;99.90
14359;DHT22;7263;49.418;11.064;2022-09-03T14:38:40;22.80;99.90
14359;DHT22;7263;49.418;11.064;2022-09-03T15:12:50;22.20;99.90
14359;DHT22;7263;49.418;11.064;2022-09-03T15:17:54;22.10;99.90
14359;DHT22;7263;49.418;11.064;2022-09-03T15:20:31;21.90;99.90
14359;DHT22;7263;49.418;11.064;2022-09-03T15:23:19;21.90;99.90
14359;DHT22;7263;49.418;11.064;2022-09-03T15:26:12;21.80;99.90
14359;DHT22;7263;49.418;11.064;2022-09-03T15:28:50;21.70;99.90
14359;DHT22;7263;49.418;11.064;2022-09-03T15:31:23;21.80;99.90
14359;DHT22;7263;49.418;11.064;2022-09-03T15:33:57;21.60;99.90
14359;DHT22;7263;49.418;11.064;2022-09-03T15:36:35;21.60;99.90
14359;DHT22;7263;49.418;11.064;2022-09-03T15:39:06;21.50;99.90
14359;DHT22;7263;49.418;11.064;2022-09-03T15:41:40;21.40;99.90
14359;DHT22;7263;49.418;11.064;2022-09-03T15:44:12;21.30;99.90
14359;DHT22;7263;49.418;11.064;2022-09-03T15:46:48;21.30;99.90
14359;DHT22;7263;49.418;11.064;2022-09-03T15:49:25;21.20;99.90
14359;DHT22;7263;49.418;11.064;2022-09-03T15:52:03;21.20;99.90
14359;DHT22;7263;49.418;11.064;2022-09-03T15:54:41;21.20;99.90
14359;DHT22;7263;49.418;11.064;2022-09-03T15:57:11;21.10;99.90
14359;DHT22;7263;49.418;11.064;2022-09-03T15:59:46;21.20;99.90
14359;DHT22;7263;49.418;11.064;2022-09-03T16:02:17;21.20;99.90
14359;DHT22;7263;49.418;11.064;2022-09-03T16:04:59;21.20;99.90
14359;DHT22;7263;49.418;11.064;2022-09-03T16:07:47;21.20;99.90
14359;DHT22;7263;49.418;11.064;2022-09-03T16:10:21;21.20;99.90
14359;DHT22;7263;49.418;11.064;2022-09-03T16:13:01;21.30;99.90
14359;DHT22;7263;49.418;11.064;2022-09-03T16:15:36;21.20;99.90
14359;DHT22;7263;49.418;11.064;2022-09-03T16:18:08;21.10;99.90
14359;DHT22;7263;49.418;11.064;2022-09-03T16:20:42;21.00;99.90
14359;DHT22;7263;49.418;11.064;2022-09-03T16:23:15;20.70;99.90
14359;DHT22;7263;49.418;11.064;2022-09-03T16:25:47;20.50;99.90
14359;DHT22;7263;49.418;11.064;2022-09-03T16:28:18;20.20;99.90
14359;DHT22;7263;49.418;11.064;2022-09-03T16:30:56;19.90;99.90
14359;DHT22;7263;49.418;11.064;2022-09-03T16:33:35;19.60;99.90
14359;DHT22;7263;49.418;11.064;2022-09-03T16:36:17;19.20;99.90
14359;DHT22;7263;49.418;11.064;2022-09-03T16:38:58;18.80;99.90
14359;DHT22;7263;49.418;11.064;2022-09-03T16:41:32;18.40;99.90
14359;DHT22;7263;49.418;11.064;2022-09-03T16:44:08;18.00;99.90
14359;DHT22;7263;49.418;11.064;2022-09-03T16:46:43;17.60;99.90
14359;DHT22;7263;49.418;11.064;2022-09-03T16:49:24;17.50;99.90
14359;DHT22;7263;49.418;11.064;2022-09-03T16:51:59;17.30;99.90
14359;DHT22;7263;49.418;11.064;2022-09-03T16:54:42;17.20;99.90
14359;DHT22;7263;49.418;11.064;2022-09-03T16:57:24;17.10;99.90
14359;DHT22;7263;49.418;11.064;2022-09-03T17:00:10;17.00;99.90
14359;DHT22;7263;49.418;11.064;2022-09-03T17:03:09;16.90;99.90
14359;DHT22;7263;49.418;11.064;2022-09-03T17:08:47;16.60;99.90
14359;DHT22;7263;49.418;11.064;2022-09-03T17:11:47;16.50;99.90
14359;DHT22;7263;49.418;11.064;2022-09-03T17:20:19;16.40;99.90
14359;DHT22;7263;49.418;11.064;2022-09-03T17:22:57;16.40;99.90
14359;DHT22;7263;49.418;11.064;2022-09-03T17:25:32;16.40;99.90
14359;DHT22;7263;49.418;11.064;2022-09-03T17:28:16;16.30;99.90
14359;DHT22;7263;49.418;11.064;2022-09-03T17:30:53;16.30;99.90
14359;DHT22;7263;49.418;11.064;2022-09-03T17:33:47;16.30;99.90
14359;DHT22;7263;49.418;11.064;2022-09-03T17:36:21;16.40;99.90
14359;DHT22;7263;49.418;11.064;2022-09-03T17:39:20;16.40;99.90
14359;DHT22;7263;49.418;11.064;2022-09-03T17:41:51;16.40;99.90
14359;DHT22;7263;49.418;11.064;2022-09-03T17:44:31;16.40;99.90
14359;DHT22;7263;49.418;11.064;2022-09-03T17:47:16;16.30;99.90
14359;DHT22;7263;49.418;11.064;2022-09-03T17:49:50;16.30;99.90
14359;DHT22;7263;49.418;11.064;2022-09-03T17:52:24;16.40;99.90
14359;DHT22;7263;49.418;11.064;2022-09-03T17:57:24;16.40;99.90
14359;DHT22;7263;49.418;11.064;2022-09-03T18:00:00;16.40;99.90
14359;DHT22;7263;49.418;11.064;2022-09-03T18:02:31;16.40;99.90
14359;DHT22;7263;49.418;11.064;2022-09-03T18:05:03;16.30;99.90
14359;DHT22;7263;49.418;11.064;2022-09-03T18:07:39;16.30;99.90
14359;DHT22;7263;49.418;11.064;2022-09-03T18:10:16;16.30;99.90
14359;DHT22;7263;49.418;11.064;2022-09-03T18:12:48;16.30;99.90
14359;DHT22;7263;49.418;11.064;2022-09-03T18:15:21;16.30;99.90
14359;DHT22;7263;49.418;11.064;2022-09-03T18:17:56;16.30;99.90
14359;DHT22;7263;49.418;11.064;2022-09-03T18:20:25;16.30;99.90
14359;DHT22;7263;49.418;11.064;2022-09-03T18:23:16;16.30;99.90
14359;DHT22;7263;49.418;11.064;2022-09-03T18:26:05;16.30;99.90
14359;DHT22;7263;49.418;11.064;2022-09-03T18:28:56;16.30;99.90
14359;DHT22;7263;49.418;11.064;2022-09-03T18:31:44;16.20;99.90
14359;DHT22;7263;49.418;11.064;2022-09-03T18:34:31;16.20;99.90
14359;DHT22;7263;49.418;11.064;2022-09-03T18:37:18;16.20;99.90
14359;DHT22;7263;49.418;11.064;2022-09-03T18:40:06;16.10;99.90
14359;DHT22;7263;49.418;11.064;2022-09-03T18:43:02;16.10;99.90
14359;DHT22;7263;49.418;11.064;2022-09-03T18:45:54;16.10;99.90
14359;DHT22;7263;49.418;11.064;2022-09-03T18:48:48;16.10;99.90
14359;DHT22;7263;49.418;11.064;2022-09-03T18:51:39;16.20;99.90
14359;DHT22;7263;49.418;11.064;2022-09-03T18:54:31;16.10;99.90
14359;DHT22;7263;49.418;11.064;2022-09-03T18:57:24;16.10;99.90
14359;DHT22;7263;49.418;11.064;2022-09-03T19:00:11;16.10;99.90
14359;DHT22;7263;49.418;11.064;2022-09-03T19:03:24;16.10;99.90
14359;DHT22;7263;49.418;11.064;2022-09-03T19:06:20;16.00;99.90
14359;DHT22;7263;49.418;11.064;2022-09-03T19:09:10;16.00;99.90
14359;DHT22;7263;49.418;11.064;2022-09-03T19:12:08;16.00;99.90
14359;DHT22;7263;49.418;11.064;2022-09-03T19:14:59;15.90;99.90
14359;DHT22;7263;49.418;11.064;2022-09-03T19:17:59;15.90;99.90
14359;DHT22;7263;49.418;11.064;2022-09-03T19:20:54;15.90;99.90
14359;DHT22;7263;49.418;11.064;2022-09-03T19:26:35;15.80;99.90
14359;DHT22;7263;49.418;11.064;2022-09-03T19:29:35;15.90;99.90
14359;DHT22;7263;49.418;11.064;2022-09-03T19:32:30;15.90;99.90
14359;DHT22;7263;49.418;11.064;2022-09-03T19:35:19;15.90;99.90